Time;durP1;ratioP1;P1;durP2;ratioP2;P2;SDS_P1;SDS_P2;PMS_P1;PMS_P2;Temp;Humidity;BMP_temperature;BMP_pressure;BME280_temperature;BME280_humidity;BME280_pressure;Samples;Min_cycle;Max_cycle;Signal;HPM_P1;HPM_P2
2022/03/03 00:04:05;;;;;;;7.30;5.32;;;;;;;20.35;42.39;100554.47;20640709;27;97594;-77
2022/03/03 00:14:06;;;;;;;9.73;5.53;;;;;;;20.29;42.34;100551.31;20636733;28;97421;-77
2022/03/03 00:24:06;;;;;;;6.88;4.95;;;;;;;20.26;42.25;100550.69;20634065;28;98270;-78
2022/03/03 00:34:07;;;;;;;8.18;5.30;;;;;;;20.23;42.26;100556.19;20633368;28;97014;-78
2022/03/03 00:44:09;;;;;;;8.13;5.43;;;;;;;20.20;42.35;100548.50;20635840;28;99544;-78
2022/03/03 00:54:10;;;;;;;7.05;5.05;;;;;;;20.21;42.59;100544.94;20646312;28;97699;-77
2022/03/03 01:04:10;;;;;;;6.60;5.07;;;;;;;20.17;42.67;100528.53;20640631;28;97035;-78
2022/03/03 01:14:10;;;;;;;7.28;5.10;;;;;;;20.16;42.62;100521.59;20642296;28;98161;-77
2022/03/03 01:24:11;;;;;;;7.13;4.90;;;;;;;20.14;42.30;100505.94;20626602;28;98256;-78
2022/03/03 01:34:12;;;;;;;8.82;5.45;;;;;;;20.12;42.43;100499.94;20644156;28;101882;-78
2022/03/03 01:44:12;;;;;;;8.93;5.35;;;;;;;20.12;42.67;100509.63;20633056;28;98003;-76
2022/03/03 01:54:13;;;;;;;8.50;5.07;;;;;;;20.06;42.40;100497.75;20629658;28;97931;-77
2022/03/03 02:04:13;;;;;;;7.28;5.15;;;;;;;20.06;42.40;100483.78;20627405;27;100309;-78
2022/03/03 02:14:14;;;;;;;5.82;4.90;;;;;;;20.00;42.58;100472.72;20626330;27;98370;-77
2022/03/03 02:24:15;;;;;;;7.85;5.18;;;;;;;20.03;42.44;100463.81;20629081;28;98705;-77
2022/03/03 02:34:15;;;;;;;6.28;4.70;;;;;;;19.97;42.45;100472.13;20646995;28;97073;-77
2022/03/03 02:44:16;;;;;;;6.78;4.78;;;;;;;19.96;42.47;100478.34;20633744;28;97621;-77
2022/03/03 02:54:16;;;;;;;7.32;5.22;;;;;;;19.93;42.39;100458.38;20625681;27;98781;-77
2022/03/03 03:04:16;;;;;;;6.22;4.75;;;;;;;19.91;41.91;100444.50;20632122;27;98061;-78
2022/03/03 03:14:17;;;;;;;7.00;5.07;;;;;;;19.89;42.20;100442.94;20620303;28;99161;-78
2022/03/03 03:24:17;;;;;;;9.15;5.38;;;;;;;19.86;42.30;100448.38;20635930;28;99087;-77
2022/03/03 03:34:17;;;;;;;8.35;5.25;;;;;;;19.86;42.34;100443.13;20635961;28;97282;-78
2022/03/03 03:44:18;;;;;;;7.65;5.35;;;;;;;19.81;42.10;100431.13;20641530;27;97062;-77
2022/03/03 03:54:18;;;;;;;6.88;5.40;;;;;;;19.79;42.36;100438.28;20639113;28;98146;-78
2022/03/03 04:04:19;;;;;;;7.25;5.40;;;;;;;19.80;42.51;100439.13;20653975;28;98546;-78
2022/03/03 04:14:20;;;;;;;8.60;5.47;;;;;;;19.81;42.27;100425.03;20643019;28;97464;-78
2022/03/03 04:24:20;;;;;;;6.95;5.35;;;;;;;19.78;42.14;100420.00;20637032;27;96951;-78
2022/03/03 04:34:21;;;;;;;8.77;5.50;;;;;;;19.73;42.33;100427.38;20652035;27;97289;-78
2022/03/03 04:44:21;;;;;;;8.95;5.55;;;;;;;19.74;42.51;100423.78;20649993;28;97123;-78
2022/03/03 04:54:21;;;;;;;7.90;5.88;;;;;;;19.72;42.38;100413.38;20639517;28;97582;-78
2022/03/03 05:04:22;;;;;;;8.18;5.55;;;;;;;19.74;42.44;100418.53;20644711;28;98391;-78
2022/03/03 05:14:23;;;;;;;10.50;5.70;;;;;;;19.80;42.82;100424.19;20663255;27;101632;-77
2022/03/03 05:24:24;;;;;;;6.60;4.88;;;;;;;20.00;43.30;100433.31;20656883;28;101048;-79
2022/03/03 05:34:27;;;;;;;10.10;5.07;;;;;;;20.11;44.01;100429.09;20649407;28;99710;-80
2022/03/03 05:44:28;;;;;;;8.95;5.05;;;;;;;20.19;44.00;100426.75;20670996;28;97597;-80
2022/03/03 05:54:28;;;;;;;13.38;5.80;;;;;;;20.27;43.76;100432.25;20667739;28;96797;-79
2022/03/03 06:04:32;;;;;;;13.52;7.78;;;;;;;20.26;43.10;100432.38;20661058;28;97845;-76
2022/03/03 06:15:04;;;;;;;19.15;6.75;;;;;;;20.35;44.05;100444.88;20675760;28;97213;-82
2022/03/03 06:25:05;;;;;;;18.13;9.10;;;;;;;20.31;41.26;100440.75;20685089;28;99791;-84
2022/03/03 06:35:06;;;;;;;22.80;11.73;;;;;;;20.20;38.84;100449.47;20674046;28;97528;-84
2022/03/03 06:45:07;;;;;;;20.83;12.33;;;;;;;20.38;40.41;100457.78;20678459;28;100374;-85
2022/03/03 06:55:10;;;;;;;30.10;17.10;;;;;;;19.67;31.78;100455.72;20687116;28;96874;-83
2022/03/03 07:05:12;;;;;;;18.05;12.27;;;;;;;20.21;36.88;100450.28;20697235;27;97773;-80
2022/03/03 07:15:12;;;;;;;15.07;10.30;;;;;;;20.33;38.61;100459.91;20684123;28;97080;-81
2022/03/03 07:25:14;;;;;;;17.00;9.95;;;;;;;20.44;38.27;100456.50;20681940;27;97599;-80
2022/03/03 07:35:15;;;;;;;17.75;11.98;;;;;;;20.34;37.05;100448.44;20679933;27;97051;-82
2022/03/03 07:45:16;;;;;;;18.73;10.82;;;;;;;20.44;38.90;100433.66;20679729;27;98914;-82
2022/03/03 07:55:16;;;;;;;17.95;9.73;;;;;;;20.53;39.12;100426.91;20667946;28;97337;-83
2022/03/03 08:05:17;;;;;;;15.68;9.65;;;;;;;20.61;39.88;100428.97;20677054;28;99271;-82
2022/03/03 08:15:18;;;;;;;17.67;11.82;;;;;;;20.71;40.33;100419.41;20686939;28;97717;-82
2022/03/03 08:25:18;;;;;;;18.05;11.68;;;;;;;20.80;40.64;100407.41;20691483;28;97668;-82
2022/03/03 08:35:22;;;;;;;22.08;14.02;;;;;;;20.86;41.04;100409.56;20670597;28;98101;-83
2022/03/03 08:45:28;;;;;;;16.60;10.05;;;;;;;20.92;40.99;100395.94;20679291;27;99694;-82
2022/03/03 08:55:30;;;;;;;18.10;11.63;;;;;;;20.98;41.15;100393.78;20679062;27;96957;-84
2022/03/03 09:05:31;;;;;;;19.20;10.82;;;;;;;21.01;41.29;100396.22;20665583;27;97658;-81
2022/03/03 09:15:33;;;;;;;15.30;9.98;;;;;;;21.02;41.31;100403.97;20672775;28;98655;-80
2022/03/03 09:25:36;;;;;;;15.70;9.53;;;;;;;21.04;41.49;100395.94;20682264;28;97042;-79
2022/03/03 09:35:37;;;;;;;13.20;9.15;;;;;;;21.09;41.71;100386.75;20664810;28;97698;-79
2022/03/03 09:45:38;;;;;;;19.45;10.07;;;;;;;21.11;41.32;100392.72;20668080;27;99198;-80
2022/03/03 09:55:39;;;;;;;15.82;10.85;;;;;;;21.18;41.11;100377.31;20670562;27;98611;-80
2022/03/03 10:05:51;;;;;;;11.07;8.20;;;;;;;21.22;41.16;100386.63;20662649;27;97477;-80
2022/03/03 10:15:59;;;;;;;14.02;9.10;;;;;;;21.27;41.29;100384.47;20615924;28;98027;-80
2022/03/03 10:26:03;;;;;;;9.98;7.13;;;;;;;21.30;41.17;100369.41;20646597;28;97120;-79
2022/03/03 10:36:11;;;;;;;13.65;7.70;;;;;;;21.33;40.78;100362.09;20654381;28;98947;-79
2022/03/03 10:46:11;;;;;;;11.05;7.40;;;;;;;21.36;40.81;100338.16;20655020;28;99835;-77
2022/03/03 10:56:18;;;;;;;12.68;7.32;;;;;;;21.39;40.81;100334.44;20656225;28;98628;-82
2022/03/03 11:06:21;;;;;;;13.35;6.78;;;;;;;21.43;40.51;100322.69;20682620;28;98985;-81
2022/03/03 11:16:24;;;;;;;11.23;6.63;;;;;;;21.44;40.30;100298.03;20692594;27;96941;-81
2022/03/03 11:26:27;;;;;;;;;;;;;;;21.42;40.02;100285.00;20674567;28;96850;-79
2022/03/03 11:36:27;;;;;;;11.02;6.45;;;;;;;21.42;40.12;100287.63;20679501;27;100016;-81
2022/03/03 11:46:48;;;;;;;73.35;29.75;;;;;;;21.47;40.57;100265.34;20669306;27;97411;-80
2022/03/03 11:57:21;;;;;;;62.03;26.95;;;;;;;21.48;41.36;100267.00;20667731;28;97911;-79
2022/03/03 12:07:29;;;;;;;52.63;22.67;;;;;;;21.54;42.25;100243.63;20666244;27;97424;-80
2022/03/03 12:17:58;;;;;;;47.78;19.80;;;;;;;21.51;41.01;100245.69;20658840;27;100867;-82
2022/03/03 12:28:16;;;;;;;42.55;17.33;;;;;;;21.53;42.34;100231.44;20682797;27;97641;-83
2022/03/03 12:38:17;;;;;;;35.92;15.48;;;;;;;21.58;42.67;100226.66;20676645;28;101393;-79
2022/03/03 12:48:29;;;;;;;32.45;13.23;;;;;;;21.59;42.16;100230.97;20646731;27;97969;-81
2022/03/03 12:58:31;;;;;;;33.93;11.63;;;;;;;21.72;43.33;100217.59;20674469;28;98328;-78
2022/03/03 13:08:34;;;;;;;26.80;11.00;;;;;;;21.89;43.30;100207.47;20657048;27;101141;-78
2022/03/03 13:18:34;;;;;;;;;;;;;;;22.02;42.66;100200.22;20664665;28;97065;-76
2022/03/03 13:28:53;;;;;;;19.52;8.18;;;;;;;22.13;42.25;100180.00;20659967;27;98105;-78
2022/03/03 13:38:59;;;;;;;21.55;8.55;;;;;;;22.10;42.12;100175.81;20648776;28;98158;-79
2022/03/03 13:48:59;;;;;;;18.00;7.78;;;;;;;22.03;41.84;100172.88;20641901;28;97603;-78
2022/03/03 13:59:18;;;;;;;15.63;7.20;;;;;;;22.01;41.76;100156.34;20645485;27;100216;-77
2022/03/03 14:09:27;;;;;;;14.88;6.55;;;;;;;22.03;42.00;100158.84;20656251;27;99800;-79
2022/03/03 14:19:29;;;;;;;12.38;6.68;;;;;;;22.05;41.70;100143.75;20652151;28;99039;-78
2022/03/03 14:29:32;;;;;;;14.77;7.60;;;;;;;21.84;33.24;100134.06;20662086;27;98442;-83
2022/03/03 14:39:32;;;;;;;14.30;6.63;;;;;;;21.83;37.01;100134.19;20687518;28;98201;-81
2022/03/03 14:49:32;;;;;;;10.90;5.88;;;;;;;21.87;38.91;100132.94;20688768;27;97666;-78
2022/03/03 14:59:33;;;;;;;9.77;5.53;;;;;;;21.83;40.26;100126.28;20667520;27;97316;-79
2022/03/03 15:09:35;;;;;;;13.80;5.90;;;;;;;21.78;41.46;100124.03;20655175;28;98713;-79
2022/03/03 15:19:37;;;;;;;12.57;8.90;;;;;;;21.37;30.20;100115.09;20660030;27;98052;-78
2022/03/03 15:29:37;;;;;;;;;;;;;;;21.31;31.97;100118.25;20660626;27;97017;-80
2022/03/03 15:39:40;;;;;;;;;;;;;;;21.36;34.51;100114.28;20697172;28;100328;-84
2022/03/03 15:49:42;;;;;;;;;;;;;;;21.51;38.07;100114.81;20710860;28;99994;-86
2022/03/03 15:59:44;;;;;;;;;;;;;;;21.58;37.98;100117.78;20684563;28;98360;-81
2022/03/03 16:09:44;;;;;;;;;;;;;;;21.63;40.20;100125.31;20686067;27;98290;-82
2022/03/03 16:19:48;;;;;;;;;;;;;;;21.59;40.63;100136.13;20693075;28;99786;-83
2022/03/03 16:29:49;;;;;;;;;;;;;;;21.61;40.37;100135.16;20717181;27;97452;-84
2022/03/03 16:39:51;;;;;;;;;;;;;;;21.63;40.12;100133.22;20704521;27;97381;-82
2022/03/03 16:49:52;;;;;;;;;;;;;;;21.67;40.08;100132.84;20700547;28;97629;-82
2022/03/03 16:59:54;;;;;;;;;;;;;;;21.74;40.88;100136.63;20703159;28;98133;-82
2022/03/03 17:09:54;;;;;;;;;;;;;;;21.80;40.13;100145.81;20702199;28;101261;-82
2022/03/03 17:19:58;;;;;;;;;;;;;;;21.83;40.13;100144.72;20701759;27;97719;-83
2022/03/03 17:29:58;;;;;;;;;;;;;;;21.90;39.49;100137.97;20699914;27;97686;-81
2022/03/03 17:39:59;;;;;;;;;;;;;;;22.01;40.88;100134.44;20698239;27;97143;-82
2022/03/03 17:49:59;;;;;;;;;;;;;;;22.21;41.26;100144.09;20703430;27;97064;-80
2022/03/03 17:59:59;;;;;;;;;;;;;;;22.31;41.74;100138.03;20690832;27;98757;-80
2022/03/03 18:10:02;;;;;;;;;;;;;;;22.42;41.92;100132.69;20672240;28;97078;-83
2022/03/03 18:20:03;;;;;;;;;;;;;;;22.48;41.56;100134.78;20677116;28;96901;-81
2022/03/03 18:30:04;;;;;;;;;;;;;;;22.43;40.87;100147.56;20685215;28;97180;-80
2022/03/03 18:40:05;;;;;;;;;;;;;;;22.42;40.36;100139.78;20670773;27;101437;-80
2022/03/03 18:50:08;;;;;;;;;;;;;;;22.48;41.36;100139.25;20653749;27;101395;-78
2022/03/03 19:00:08;;;;;;;;;;;;;;;22.35;39.91;100142.06;20645841;28;98058;-78
2022/03/03 19:10:09;;;;;;;;;;;;;;;22.41;40.15;100131.03;20665444;27;101359;-79
2022/03/03 19:20:12;;;;;;;;;;;;;;;22.46;42.64;100133.25;20677735;28;96987;-81
2022/03/03 19:30:19;;;;;;;;;;;;;;;22.46;43.52;100134.13;20703736;28;96807;-84
2022/03/03 19:40:20;;;;;;;;;;;;;;;22.46;43.90;100136.75;20719387;28;98123;-83
2022/03/03 19:50:21;;;;;;;;;;;;;;;22.43;43.58;100144.09;20711761;27;96870;-83
2022/03/03 20:00:21;;;;;;;;;;;;;;;22.43;43.41;100152.00;20695522;28;97012;-84
2022/03/03 20:20:41;;;;;;;;;;;;;;;22.37;43.32;100158.59;20683847;28;96938;-79
2022/03/03 20:30:44;;;;;;;;;;;;;;;22.23;42.02;100154.53;20703880;28;97759;-82
2022/03/03 20:40:45;;;;;;;;;;;;;;;22.12;42.23;100151.97;20701267;28;97966;-81
2022/03/03 20:50:48;;;;;;;;;;;;;;;22.02;42.52;100144.00;20718916;27;96865;-82
2022/03/03 21:00:51;;;;;;;;;;;;;;;21.93;42.51;100153.53;20720533;27;97707;-83
2022/03/03 21:10:52;;;;;;;;;;;;;;;21.84;42.69;100143.78;20718046;27;97265;-82
2022/03/03 21:20:55;;;;;;;;;;;;;;;;;;20718895;28;97539;-82
2022/03/03 21:30:59;;;;;;;;;;;;;;;21.68;43.17;100158.22;20696462;28;96609;-83
2022/03/03 21:41:02;;;;;;;;;;;;;;;21.63;43.36;100156.91;20689049;28;97048;-82
2022/03/03 21:51:02;;;;;;;;;;;;;;;21.57;43.41;100163.56;20700895;27;99996;-82
2022/03/03 22:01:04;;;;;;;;;;;;;;;21.50;43.66;100168.44;20708250;27;97154;-82
2022/03/03 22:11:06;;;;;;;;;;;;;;;21.46;43.63;100159.13;20689783;28;97280;-81
2022/03/03 22:21:06;;;;;;;;;;;;;;;21.39;44.12;100161.41;20687687;28;97544;-82
2022/03/03 22:31:09;;;;;;;;;;;;;;;21.34;43.88;100165.41;20699369;27;101076;-83
2022/03/03 22:41:11;;;;;;;;;;;;;;;21.29;44.26;100157.88;20685604;28;97211;-81
2022/03/03 23:01:30;;;;;;;;;;;;;;;21.20;44.49;100156.84;20679584;28;97213;-81
2022/03/03 23:11:31;;;;;;;;;;;;;;;21.14;44.26;100159.13;20689277;28;98622;-81
2022/03/03 23:21:37;;;;;;;;;;;;;;;21.04;44.59;100156.41;20671025;27;97624;-81
2022/03/03 23:31:38;;;;;;;;;;;;;;;21.01;44.40;100161.91;20686260;28;98113;-81
2022/03/03 23:41:40;;;;;;;;;;;;;;;20.94;44.24;100165.00;20688275;28;97668;-81
2022/03/03 23:51:40;;;;;;;;;;;;;;;20.84;44.35;100166.72;20701099;27;100153;-80
